Time;durP1;ratioP1;P1;durP2;ratioP2;P2;SDS_P1;SDS_P2;PMS_P1;PMS_P2;Temp;Humidity;BMP_temperature;BMP_pressure;BME280_temperature;BME280_humidity;BME280_pressure;Samples;Min_cycle;Max_cycle;Signal;HPM_P1;HPM_P2
2023/12/06 00:01:49;;;;;;;67.40;31.60;;;;;;;;;;5056672;28;20494;-70
2023/12/06 00:04:15;;;;;;;69.85;31.17;;;;;;;;;;5053213;28;20080;-70
2023/12/06 00:06:41;;;;;;;63.90;30.00;;;;;;;;;;5052316;28;20067;-70
2023/12/06 00:09:07;;;;;;;67.97;31.58;;;;;;;;;;5044691;28;20110;-70
2023/12/06 00:11:33;;;;;;;64.13;30.15;;;;;;;;;;5049774;28;20129;-70
2023/12/06 00:13:59;;;;;;;64.13;28.88;;;;;;;;;;5054464;28;20536;-70
2023/12/06 00:16:25;;;;;;;63.58;30.42;;;;;;;;;;5052616;28;20119;-70
2023/12/06 00:18:51;;;;;;;61.97;29.90;;;;;;;;;;5049101;28;20092;-70
2023/12/06 00:21:17;;;;;;;65.45;30.55;;;;;;;;;;5046109;28;20106;-70
2023/12/06 00:23:43;;;;;;;63.30;29.60;;;;;;;;;;5044823;28;20067;-70
2023/12/06 00:26:09;;;;;;;64.75;31.70;;;;;;;;;;5053289;28;20487;-70
2023/12/06 00:28:35;;;;;;;64.45;31.20;;;;;;;;;;5053093;28;20123;-70
2023/12/06 00:31:01;;;;;;;62.47;29.60;;;;;;;;;;5051534;28;20064;-70
2023/12/06 00:33:28;;;;;;;58.95;28.95;;;;;;;;;;5052651;28;20055;-70
2023/12/06 00:35:54;;;;;;;63.67;29.45;;;;;;;;;;5051429;28;20123;-70
2023/12/06 00:38:20;;;;;;;61.22;30.30;;;;;;;;;;5053061;28;20180;-70
2023/12/06 00:40:46;;;;;;;59.97;29.33;;;;;;;;;;5055032;28;20195;-70
2023/12/06 00:43:12;;;;;;;63.20;30.48;;;;;;;;;;5056970;28;20040;-71
2023/12/06 00:45:38;;;;;;;63.70;30.45;;;;;;;;;;5052976;28;20116;-71
2023/12/06 00:48:05;;;;;;;61.47;28.90;;;;;;;;;;5051444;28;20040;-71
2023/12/06 00:50:31;;;;;;;60.90;29.85;;;;;;;;;;5051321;28;20041;-71
2023/12/06 00:52:57;;;;;;;60.92;30.60;;;;;;;;;;5050197;28;20125;-71
2023/12/06 00:55:23;;;;;;;59.50;30.55;;;;;;;;;;5054702;28;20041;-71
2023/12/06 00:57:48;;;;;;;58.47;29.10;;;;;;;;;;5051133;28;20171;-71
2023/12/06 01:00:15;;;;;;;61.30;28.98;;;;;;;;;;5052495;28;20044;-71
2023/12/06 01:02:41;;;;;;;61.53;30.00;;;;;;;;;;5052075;28;20423;-71
2023/12/06 01:05:07;;;;;;;60.88;29.42;;;;;;;;;;5052465;28;20037;-71
2023/12/06 01:07:33;;;;;;;61.80;31.00;;;;;;;;;;5057053;28;20043;-71
2023/12/06 01:09:59;;;;;;;66.13;31.08;;;;;;;;;;5054181;28;20041;-71
2023/12/06 01:12:25;;;;;;;63.13;30.63;;;;;;;;;;5050973;28;20041;-71
2023/12/06 01:14:51;;;;;;;62.78;30.98;;;;;;;;;;5052250;28;20044;-71
2023/12/06 01:17:17;;;;;;;61.50;31.75;;;;;;;;;;5045630;28;20102;-71
2023/12/06 01:19:43;;;;;;;63.03;32.20;;;;;;;;;;5047245;28;20493;-72
2023/12/06 01:22:09;;;;;;;61.70;30.63;;;;;;;;;;5076511;22;20066;-72
2023/12/06 01:24:35;;;;;;;62.38;30.05;;;;;;;;;;5066258;28;20090;-71
2023/12/06 01:27:01;;;;;;;60.95;31.20;;;;;;;;;;5077666;28;20037;-72
2023/12/06 01:29:27;;;;;;;63.80;31.17;;;;;;;;;;5077510;28;20040;-72
2023/12/06 01:31:53;;;;;;;64.32;32.55;;;;;;;;;;5080166;28;20424;-72
2023/12/06 01:34:19;;;;;;;70.10;32.53;;;;;;;;;;5077149;28;20193;-72
2023/12/06 01:36:45;;;;;;;71.32;32.22;;;;;;;;;;5073390;28;20410;-72
2023/12/06 01:39:11;;;;;;;69.72;31.92;;;;;;;;;;5077110;28;20122;-72
2023/12/06 01:41:37;;;;;;;62.85;31.80;;;;;;;;;;5078479;28;20564;-72
2023/12/06 01:44:03;;;;;;;69.72;32.17;;;;;;;;;;5079612;28;20038;-72
2023/12/06 01:46:29;;;;;;;64.82;31.77;;;;;;;;;;5077546;28;20040;-72
2023/12/06 01:48:56;;;;;;;67.07;32.50;;;;;;;;;;5077720;28;20040;-71
2023/12/06 01:51:23;;;;;;;72.40;31.30;;;;;;;;;;5075647;28;20040;-71
2023/12/06 01:53:49;;;;;;;73.50;32.45;;;;;;;;;;5078757;28;20496;-71
2023/12/06 01:56:16;;;;;;;69.28;32.70;;;;;;;;;;5075784;28;20040;-71
2023/12/06 01:58:42;;;;;;;69.43;32.42;;;;;;;;;;5079113;28;20093;-71
2023/12/06 02:01:09;;;;;;;68.68;34.08;;;;;;;;;;5078625;28;20055;-71
2023/12/06 02:03:35;;;;;;;66.85;32.03;;;;;;;;;;5076604;28;20039;-71
2023/12/06 02:06:02;;;;;;;66.43;32.03;;;;;;;;;;5078986;28;20352;-72
2023/12/06 02:08:28;;;;;;;71.75;33.65;;;;;;;;;;5072069;28;20406;-72
2023/12/06 02:10:54;;;;;;;73.22;33.60;;;;;;;;;;5078461;28;20032;-72
2023/12/06 02:13:20;;;;;;;66.22;32.47;;;;;;;;;;5076134;28;20032;-72
2023/12/06 02:15:47;;;;;;;70.47;31.55;;;;;;;;;;5077143;28;20482;-72
2023/12/06 02:18:13;;;;;;;69.00;33.47;;;;;;;;;;5078293;28;20110;-72
2023/12/06 02:20:40;;;;;;;70.38;31.98;;;;;;;;;;5075341;28;20039;-72
2023/12/06 02:23:07;;;;;;;68.32;32.75;;;;;;;;;;5060675;28;20071;-72
2023/12/06 02:25:33;;;;;;;69.90;31.63;;;;;;;;;;5074429;28;20040;-72
2023/12/06 02:27:59;;;;;;;68.90;32.17;;;;;;;;;;5077226;28;20489;-72
2023/12/06 02:30:25;;;;;;;70.32;32.80;;;;;;;;;;5077165;28;20086;-72
2023/12/06 02:32:51;;;;;;;71.40;31.90;;;;;;;;;;5078009;28;20037;-72
2023/12/06 02:35:19;;;;;;;70.40;33.00;;;;;;;;;;5074636;28;20036;-72
2023/12/06 02:37:46;;;;;;;74.50;33.10;;;;;;;;;;5077347;28;20036;-72
2023/12/06 02:40:13;;;;;;;70.22;31.85;;;;;;;;;;5077393;28;20399;-72
2023/12/06 02:42:39;;;;;;;69.65;32.70;;;;;;;;;;5073727;28;20048;-72
2023/12/06 02:45:05;;;;;;;73.57;33.75;;;;;;;;;;5076011;28;20105;-72
2023/12/06 02:47:31;;;;;;;67.90;31.58;;;;;;;;;;5076370;28;20056;-71
2023/12/06 02:49:57;;;;;;;71.13;31.55;;;;;;;;;;5073685;28;20044;-71
2023/12/06 02:52:23;;;;;;;72.22;32.97;;;;;;;;;;5076398;28;20067;-71
2023/12/06 02:54:49;;;;;;;73.60;32.65;;;;;;;;;;5078027;28;20081;-71
2023/12/06 02:57:15;;;;;;;66.32;30.95;;;;;;;;;;5076820;28;20445;-71
2023/12/06 02:59:41;;;;;;;70.30;32.10;;;;;;;;;;5074385;28;20043;-71
2023/12/06 03:02:07;;;;;;;66.22;30.98;;;;;;;;;;5074752;28;20169;-71
2023/12/06 03:04:33;;;;;;;63.42;30.02;;;;;;;;;;5072860;28;20477;-71
2023/12/06 03:06:59;;;;;;;70.18;31.45;;;;;;;;;;5075804;28;20067;-71
2023/12/06 03:09:25;;;;;;;79.28;32.20;;;;;;;;;;5075280;28;20040;-71
2023/12/06 03:11:51;;;;;;;70.07;31.38;;;;;;;;;;5074917;28;20478;-72
2023/12/06 03:14:17;;;;;;;73.43;31.50;;;;;;;;;;5076603;28;20414;-72
2023/12/06 03:16:43;;;;;;;72.68;32.10;;;;;;;;;;5081191;28;20129;-72
2023/12/06 03:19:09;;;;;;;74.20;32.13;;;;;;;;;;5078704;28;20039;-72
2023/12/06 03:21:35;;;;;;;71.13;31.92;;;;;;;;;;5076384;28;20036;-72
2023/12/06 03:24:01;;;;;;;68.63;31.10;;;;;;;;;;5075245;28;20039;-72
2023/12/06 03:26:27;;;;;;;69.53;30.63;;;;;;;;;;5077962;28;20044;-71
2023/12/06 03:28:53;;;;;;;64.18;30.15;;;;;;;;;;5074487;28;20075;-71
2023/12/06 03:31:18;;;;;;;66.05;30.92;;;;;;;;;;5077163;28;20123;-71
2023/12/06 03:33:44;;;;;;;67.38;30.33;;;;;;;;;;5079765;28;20075;-71
2023/12/06 03:36:11;;;;;;;66.38;29.40;;;;;;;;;;5078390;28;20116;-72
2023/12/06 03:38:37;;;;;;;67.13;30.48;;;;;;;;;;5081930;28;20064;-72
2023/12/06 03:41:03;;;;;;;65.28;29.40;;;;;;;;;;5078041;28;20490;-72
2023/12/06 03:43:29;;;;;;;63.17;29.15;;;;;;;;;;5076073;28;20486;-72
2023/12/06 03:45:55;;;;;;;62.97;29.35;;;;;;;;;;5075463;28;20115;-72
2023/12/06 03:48:21;;;;;;;64.05;29.20;;;;;;;;;;5079398;28;20387;-72
2023/12/06 03:50:47;;;;;;;62.40;29.60;;;;;;;;;;5075797;28;20059;-72
2023/12/06 03:53:13;;;;;;;59.17;28.80;;;;;;;;;;5072545;28;20036;-71
2023/12/06 03:55:39;;;;;;;64.97;29.00;;;;;;;;;;5059766;28;20040;-71
2023/12/06 03:58:06;;;;;;;65.10;28.77;;;;;;;;;;5078243;28;20045;-71
2023/12/06 04:00:32;;;;;;;60.03;27.40;;;;;;;;;;5073101;28;20037;-72
2023/12/06 04:02:58;;;;;;;58.30;28.58;;;;;;;;;;5084239;28;20036;-72
2023/12/06 04:05:24;;;;;;;61.63;29.10;;;;;;;;;;5080756;28;20497;-72
2023/12/06 04:07:50;;;;;;;58.70;28.58;;;;;;;;;;5081348;28;20039;-72
2023/12/06 04:10:17;;;;;;;56.90;27.50;;;;;;;;;;5076653;28;20371;-72
2023/12/06 04:12:43;;;;;;;56.05;26.67;;;;;;;;;;5078280;28;20044;-71
2023/12/06 04:15:11;;;;;;;59.88;27.60;;;;;;;;;;5082356;28;20101;-71
2023/12/06 04:17:37;;;;;;;55.25;27.73;;;;;;;;;;5074643;28;20068;-72
2023/12/06 04:20:06;;;;;;;50.88;26.08;;;;;;;;;;5083043;28;20136;-72
2023/12/06 04:22:32;;;;;;;56.50;26.50;;;;;;;;;;5076260;28;20033;-72
2023/12/06 04:24:58;;;;;;;56.50;26.65;;;;;;;;;;5083540;28;20042;-71
2023/12/06 04:27:24;;;;;;;50.05;25.67;;;;;;;;;;5080313;28;20063;-72
2023/12/06 04:29:50;;;;;;;56.60;27.10;;;;;;;;;;5083054;28;20037;-72
2023/12/06 04:32:16;;;;;;;54.80;26.50;;;;;;;;;;5078865;28;20115;-72
2023/12/06 04:34:52;;;;;;;51.90;26.65;;;;;;;;;;5081956;28;20112;-72
2023/12/06 04:37:18;;;;;;;52.22;25.38;;;;;;;;;;5080677;28;20058;-72
2023/12/06 04:39:44;;;;;;;56.42;26.90;;;;;;;;;;5082328;28;20040;-71
2023/12/06 04:42:10;;;;;;;58.03;27.48;;;;;;;;;;5062741;28;20036;-71
2023/12/06 04:44:36;;;;;;;54.83;26.45;;;;;;;;;;5079743;28;20502;-71
2023/12/06 04:47:02;;;;;;;53.05;26.13;;;;;;;;;;5083395;28;20036;-71
2023/12/06 04:49:28;;;;;;;57.00;26.75;;;;;;;;;;5080454;28;20545;-71
2023/12/06 04:51:54;;;;;;;50.13;25.48;;;;;;;;;;5078452;28;20051;-71
2023/12/06 04:54:23;;;;;;;52.95;25.80;;;;;;;;;;5080111;28;20711;-71
2023/12/06 04:56:49;;;;;;;50.88;25.85;;;;;;;;;;5082020;28;20040;-71
2023/12/06 04:59:15;;;;;;;54.65;27.00;;;;;;;;;;5079374;28;20040;-71
2023/12/06 05:01:43;;;;;;;55.05;26.25;;;;;;;;;;5075253;28;20052;-71
2023/12/06 05:04:09;;;;;;;55.50;27.13;;;;;;;;;;5078955;28;20080;-71
2023/12/06 05:06:35;;;;;;;52.97;24.90;;;;;;;;;;5078279;28;20032;-71
2023/12/06 05:09:01;;;;;;;52.83;25.98;;;;;;;;;;5081637;28;20032;-71
2023/12/06 05:11:27;;;;;;;49.00;25.88;;;;;;;;;;5074237;28;20059;-71
2023/12/06 05:13:53;;;;;;;54.08;25.38;;;;;;;;;;5075728;28;20598;-71
2023/12/06 05:16:18;;;;;;;49.58;25.67;;;;;;;;;;5081076;28;20066;-71
2023/12/06 05:18:44;;;;;;;47.30;25.40;;;;;;;;;;5081836;28;20035;-71
2023/12/06 05:21:10;;;;;;;50.70;25.38;;;;;;;;;;5080223;28;20028;-71
2023/12/06 05:23:36;;;;;;;45.90;24.27;;;;;;;;;;5077476;28;20032;-70
2023/12/06 05:26:03;;;;;;;51.55;25.13;;;;;;;;;;5074360;28;20390;-72
2023/12/06 05:28:29;;;;;;;51.63;25.52;;;;;;;;;;5078082;28;20059;-71
2023/12/06 05:30:55;;;;;;;50.35;25.50;;;;;;;;;;5070468;28;20549;-71
2023/12/06 05:33:21;;;;;;;48.17;24.55;;;;;;;;;;5073125;28;20043;-71
2023/12/06 05:35:47;;;;;;;49.30;25.38;;;;;;;;;;5078410;28;20037;-71
2023/12/06 05:38:13;;;;;;;49.33;24.75;;;;;;;;;;5081167;28;20140;-71
2023/12/06 05:40:39;;;;;;;50.03;24.92;;;;;;;;;;5078018;28;20039;-71
2023/12/06 05:43:05;;;;;;;52.00;26.08;;;;;;;;;;5077078;28;20448;-71
2023/12/06 05:45:31;;;;;;;47.30;24.58;;;;;;;;;;5080204;28;20050;-71
2023/12/06 05:47:57;;;;;;;43.33;23.88;;;;;;;;;;5083072;28;20121;-71
2023/12/06 05:50:23;;;;;;;46.65;25.38;;;;;;;;;;5079985;28;20162;-71
2023/12/06 05:52:49;;;;;;;44.25;23.20;;;;;;;;;;5079397;28;20049;-71
2023/12/06 05:55:16;;;;;;;47.92;23.27;;;;;;;;;;5079727;28;20051;-71
2023/12/06 05:57:42;;;;;;;46.28;23.20;;;;;;;;;;5079980;28;20399;-71
2023/12/06 06:00:12;;;;;;;45.15;23.10;;;;;;;;;;5075220;28;20078;-70
2023/12/06 06:02:44;;;;;;;45.75;23.58;;;;;;;;;;5080418;28;20044;-70
2023/12/06 06:05:11;;;;;;;47.22;23.63;;;;;;;;;;5079283;28;20036;-71
2023/12/06 06:07:37;;;;;;;42.65;23.30;;;;;;;;;;5062007;28;20040;-71
2023/12/06 06:10:03;;;;;;;44.72;22.42;;;;;;;;;;5083584;28;20115;-71
2023/12/06 06:12:30;;;;;;;41.22;22.15;;;;;;;;;;5077417;28;20041;-71
2023/12/06 06:14:56;;;;;;;41.05;21.25;;;;;;;;;;5078569;28;20047;-71
2023/12/06 06:17:22;;;;;;;42.25;22.48;;;;;;;;;;5080563;28;20070;-71
2023/12/06 06:19:48;;;;;;;41.70;22.58;;;;;;;;;;5081921;28;20037;-71
2023/12/06 06:22:14;;;;;;;39.35;20.77;;;;;;;;;;5081640;28;20039;-71
2023/12/06 06:24:40;;;;;;;45.05;21.90;;;;;;;;;;5080608;28;20036;-71
2023/12/06 06:27:06;;;;;;;36.25;20.15;;;;;;;;;;5080871;28;20036;-71
2023/12/06 06:29:32;;;;;;;38.33;20.33;;;;;;;;;;5079885;28;20040;-71
2023/12/06 06:31:58;;;;;;;43.60;21.98;;;;;;;;;;5077701;28;20036;-71
2023/12/06 06:34:24;;;;;;;40.80;21.67;;;;;;;;;;5073994;28;20487;-71
2023/12/06 06:36:50;;;;;;;39.03;21.98;;;;;;;;;;5079054;28;20037;-71
2023/12/06 06:39:16;;;;;;;36.03;20.95;;;;;;;;;;5081223;28;20520;-71
2023/12/06 06:41:42;;;;;;;38.25;20.27;;;;;;;;;;5078654;28;20029;-71
2023/12/06 06:44:08;;;;;;;38.65;21.00;;;;;;;;;;5063932;28;20523;-71
2023/12/06 06:46:34;;;;;;;38.00;21.58;;;;;;;;;;5061086;28;20044;-71
2023/12/06 06:49:00;;;;;;;43.40;22.30;;;;;;;;;;5053010;28;20102;-71
2023/12/06 06:51:33;;;;;;;40.40;22.02;;;;;;;;;;5060092;28;20111;-71
2023/12/06 06:53:59;;;;;;;40.63;22.55;;;;;;;;;;5075623;28;20127;-71
2023/12/06 06:56:25;;;;;;;41.08;21.98;;;;;;;;;;5080332;28;20486;-71
2023/12/06 06:58:51;;;;;;;39.53;21.90;;;;;;;;;;5080819;28;20040;-71
2023/12/06 07:01:18;;;;;;;42.65;22.30;;;;;;;;;;5080877;28;20074;-71
2023/12/06 07:03:44;;;;;;;38.30;21.05;;;;;;;;;;5083196;28;20041;-71
2023/12/06 07:06:10;;;;;;;44.28;22.48;;;;;;;;;;5082503;28;20290;-71
2023/12/06 07:08:36;;;;;;;44.85;22.70;;;;;;;;;;5080731;28;20064;-71
2023/12/06 07:11:04;;;;;;;43.03;21.42;;;;;;;;;;5086207;28;20040;-71
2023/12/06 07:13:30;;;;;;;42.97;22.30;;;;;;;;;;5077846;28;20037;-71
2023/12/06 07:15:56;;;;;;;37.88;20.90;;;;;;;;;;5081804;28;20037;-71
2023/12/06 07:18:24;;;;;;;43.65;22.23;;;;;;;;;;5072735;28;20045;-71
2023/12/06 07:23:25;;;;;;;44.40;23.88;;;;;;;;;;5047119;28;20061;-70
2023/12/06 07:25:53;;;;;;;41.28;23.63;;;;;;;;;;5053285;28;20051;-70
2023/12/06 07:28:19;;;;;;;44.70;24.60;;;;;;;;;;5045199;28;20049;-70
2023/12/06 07:30:45;;;;;;;45.78;23.48;;;;;;;;;;5037969;28;20112;-70
2023/12/06 07:33:11;;;;;;;41.15;22.00;;;;;;;;;;5035885;28;20055;-70
2023/12/06 07:35:37;;;;;;;45.33;22.83;;;;;;;;;;5046626;28;20102;-70
2023/12/06 07:38:05;;;;;;;43.83;22.95;;;;;;;;;;5036060;28;20041;-70
2023/12/06 07:40:31;;;;;;;40.55;22.70;;;;;;;;;;5042095;28;20044;-70
2023/12/06 07:42:57;;;;;;;44.65;22.90;;;;;;;;;;5039226;28;20037;-70
2023/12/06 07:45:23;;;;;;;42.40;22.05;;;;;;;;;;5032684;28;20506;-70
2023/12/06 07:47:49;;;;;;;41.72;22.80;;;;;;;;;;5039262;28;20033;-70
2023/12/06 07:50:16;;;;;;;37.55;20.30;;;;;;;;;;5043275;28;20047;-70
2023/12/06 07:52:42;;;;;;;45.38;23.45;;;;;;;;;;5039487;28;20084;-70
2023/12/06 07:55:09;;;;;;;42.08;21.83;;;;;;;;;;5046873;28;20086;-70
2023/12/06 07:57:36;;;;;;;39.80;22.17;;;;;;;;;;5040701;28;20116;-70
2023/12/06 08:00:03;;;;;;;42.80;22.25;;;;;;;;;;5037887;28;20033;-70
2023/12/06 08:02:29;;;;;;;40.58;22.85;;;;;;;;;;5038800;28;20556;-70
2023/12/06 08:04:55;;;;;;;40.20;21.42;;;;;;;;;;5036637;28;20116;-70
2023/12/06 08:07:22;;;;;;;43.00;21.83;;;;;;;;;;5037856;28;20403;-70
2023/12/06 08:09:49;;;;;;;44.88;22.80;;;;;;;;;;5035242;28;20277;-70
2023/12/06 08:12:15;;;;;;;40.30;21.95;;;;;;;;;;5031329;28;20053;-70
2023/12/06 08:14:43;;;;;;;38.90;22.30;;;;;;;;;;5035606;28;20037;-70
2023/12/06 08:17:09;;;;;;;41.33;21.17;;;;;;;;;;5036165;28;20080;-70
2023/12/06 08:19:35;;;;;;;40.55;21.20;;;;;;;;;;5039676;28;20083;-71
2023/12/06 08:22:01;;;;;;;41.88;22.25;;;;;;;;;;5043337;28;20045;-69
2023/12/06 08:24:27;;;;;;;42.88;21.98;;;;;;;;;;5035102;28;20428;-69
2023/12/06 08:26:53;;;;;;;40.55;21.50;;;;;;;;;;5045422;28;20045;-70
2023/12/06 08:29:19;;;;;;;38.55;21.20;;;;;;;;;;5043484;28;20499;-70
2023/12/06 08:31:46;;;;;;;38.97;21.80;;;;;;;;;;5037648;28;20053;-70
2023/12/06 08:34:12;;;;;;;39.30;21.52;;;;;;;;;;5042410;28;20498;-70
2023/12/06 08:36:38;;;;;;;37.70;20.35;;;;;;;;;;5041770;28;20567;-70
2023/12/06 08:39:04;;;;;;;38.20;20.40;;;;;;;;;;5031939;28;20108;-70
2023/12/06 08:41:30;;;;;;;35.65;20.33;;;;;;;;;;5037586;28;20488;-70
2023/12/06 08:43:55;;;;;;;38.00;20.33;;;;;;;;;;5045192;28;20033;-70
2023/12/06 08:46:23;;;;;;;33.05;20.58;;;;;;;;;;5039263;28;20040;-70
2023/12/06 08:48:49;;;;;;;33.92;20.63;;;;;;;;;;5037606;28;20473;-70
2023/12/06 08:51:15;;;;;;;35.47;19.00;;;;;;;;;;5034156;28;20045;-70
2023/12/06 08:53:41;;;;;;;35.15;19.50;;;;;;;;;;5037055;28;20037;-70
2023/12/06 08:56:07;;;;;;;35.63;20.52;;;;;;;;;;5040168;28;20037;-70
2023/12/06 08:58:33;;;;;;;36.97;20.20;;;;;;;;;;5037183;28;20037;-70
2023/12/06 09:00:59;;;;;;;36.85;20.33;;;;;;;;;;5045868;28;20063;-70
2023/12/06 09:03:25;;;;;;;33.70;19.83;;;;;;;;;;5043221;28;20048;-70
2023/12/06 09:05:51;;;;;;;31.83;19.17;;;;;;;;;;5035248;28;20030;-70
2023/12/06 09:08:17;;;;;;;35.30;19.98;;;;;;;;;;5043948;28;20037;-70
2023/12/06 09:10:43;;;;;;;36.88;19.88;;;;;;;;;;5043130;28;20041;-70
2023/12/06 09:13:09;;;;;;;35.47;20.55;;;;;;;;;;5044224;28;20106;-70
2023/12/06 09:15:35;;;;;;;35.17;19.77;;;;;;;;;;5042296;28;20509;-70
2023/12/06 09:18:01;;;;;;;34.03;19.10;;;;;;;;;;5045518;28;20040;-70
2023/12/06 09:20:26;;;;;;;36.08;19.95;;;;;;;;;;5036096;28;20044;-70
2023/12/06 09:22:52;;;;;;;35.17;19.10;;;;;;;;;;5035887;28;20526;-70
2023/12/06 09:25:18;;;;;;;37.70;20.77;;;;;;;;;;5039720;28;20040;-70
2023/12/06 09:27:44;;;;;;;36.42;21.15;;;;;;;;;;5037414;28;20064;-70
2023/12/06 09:30:11;;;;;;;36.40;19.55;;;;;;;;;;5045270;28;20048;-70
2023/12/06 09:32:37;;;;;;;39.70;20.00;;;;;;;;;;5036676;28;20071;-70
2023/12/06 09:35:03;;;;;;;34.90;19.38;;;;;;;;;;5039149;28;20515;-70
2023/12/06 09:37:29;;;;;;;35.40;19.88;;;;;;;;;;5040477;28;20075;-70
2023/12/06 09:39:55;;;;;;;36.40;20.02;;;;;;;;;;5040004;28;20061;-70
2023/12/06 09:42:23;;;;;;;34.70;19.17;;;;;;;;;;5043730;28;20036;-70
2023/12/06 09:44:51;;;;;;;33.80;18.77;;;;;;;;;;5036016;28;20041;-70
2023/12/06 09:47:17;;;;;;;34.72;19.23;;;;;;;;;;5037157;28;20046;-70
2023/12/06 09:49:43;;;;;;;37.20;19.63;;;;;;;;;;5043155;28;20403;-70
2023/12/06 09:52:11;;;;;;;34.55;19.30;;;;;;;;;;5040203;28;20548;-70
2023/12/06 09:54:42;;;;;;;35.30;19.40;;;;;;;;;;5027123;28;20524;-70
2023/12/06 09:57:08;;;;;;;38.73;20.10;;;;;;;;;;5038996;28;20044;-70
2023/12/06 09:59:34;;;;;;;30.83;18.70;;;;;;;;;;5040874;28;20037;-70
2023/12/06 10:02:00;;;;;;;37.00;19.48;;;;;;;;;;5045093;28;20035;-70
2023/12/06 10:04:26;;;;;;;33.13;18.92;;;;;;;;;;5030894;28;20510;-70
2023/12/06 10:06:52;;;;;;;32.13;18.58;;;;;;;;;;5036450;28;20033;-70
2023/12/06 10:09:19;;;;;;;33.97;19.20;;;;;;;;;;5042861;28;20495;-70
2023/12/06 10:11:45;;;;;;;33.75;18.77;;;;;;;;;;5036716;28;20111;-70
2023/12/06 10:14:21;;;;;;;35.10;18.55;;;;;;;;;;5035062;28;20116;-70
2023/12/06 10:16:47;;;;;;;34.30;19.45;;;;;;;;;;5037569;28;20139;-70
2023/12/06 10:19:22;;;;;;;33.33;18.77;;;;;;;;;;5040477;28;20041;-70
2023/12/06 10:21:48;;;;;;;32.42;17.88;;;;;;;;;;5035927;28;20063;-70
2023/12/06 10:24:14;;;;;;;30.88;17.35;;;;;;;;;;5046340;28;20120;-70
2023/12/06 10:26:40;;;;;;;32.28;17.42;;;;;;;;;;5046705;28;20467;-70
2023/12/06 10:29:06;;;;;;;29.27;16.92;;;;;;;;;;5043134;28;20068;-70
2023/12/06 10:31:41;;;;;;;36.20;18.92;;;;;;;;;;5040056;28;20080;-70
2023/12/06 10:34:08;;;;;;;32.63;18.48;;;;;;;;;;5041246;28;20033;-70
2023/12/06 10:36:34;;;;;;;33.58;18.60;;;;;;;;;;5045759;28;20044;-70
2023/12/06 10:39:00;;;;;;;33.42;18.08;;;;;;;;;;5049515;28;20043;-70
2023/12/06 10:41:27;;;;;;;32.25;17.23;;;;;;;;;;5041663;28;20530;-70
2023/12/06 10:43:55;;;;;;;36.08;18.20;;;;;;;;;;5037057;28;20046;-70
2023/12/06 10:46:22;;;;;;;34.72;17.80;;;;;;;;;;5036278;28;20041;-70
2023/12/06 10:48:50;;;;;;;41.47;18.95;;;;;;;;;;5040814;28;20372;-70
2023/12/06 10:51:16;;;;;;;35.28;17.98;;;;;;;;;;5038869;28;20049;-70
2023/12/06 10:53:43;;;;;;;30.23;17.15;;;;;;;;;;5041895;28;20040;-70
2023/12/06 10:56:10;;;;;;;30.88;17.92;;;;;;;;;;5048819;28;20068;-70
2023/12/06 10:58:37;;;;;;;30.33;17.92;;;;;;;;;;5046432;28;20029;-70
2023/12/06 11:01:03;;;;;;;33.00;18.05;;;;;;;;;;5037886;28;20056;-70
2023/12/06 11:03:29;;;;;;;29.27;16.88;;;;;;;;;;5045743;28;20091;-70
2023/12/06 11:05:57;;;;;;;79.68;21.98;;;;;;;;;;5040525;28;20047;-70
2023/12/06 11:08:23;;;;;;;40.47;17.70;;;;;;;;;;5047207;28;20503;-70
2023/12/06 11:11:08;;;;;;;32.50;18.13;;;;;;;;;;5035388;28;20049;-70
2023/12/06 11:13:58;;;;;;;34.67;18.55;;;;;;;;;;5038876;28;20507;-70
2023/12/06 11:16:51;;;;;;;30.60;17.10;;;;;;;;;;5047749;28;20376;-70
2023/12/06 11:19:17;;;;;;;59.42;19.63;;;;;;;;;;5010705;28;20049;-70
2023/12/06 11:21:44;;;;;;;33.55;17.55;;;;;;;;;;5037527;28;20041;-70
2023/12/06 11:24:11;;;;;;;38.60;18.83;;;;;;;;;;5043254;28;20044;-70
2023/12/06 11:26:37;;;;;;;34.00;17.42;;;;;;;;;;5040074;28;20125;-70
2023/12/06 11:29:03;;;;;;;30.45;18.10;;;;;;;;;;5044194;28;20124;-70
2023/12/06 11:31:35;;;;;;;29.38;16.95;;;;;;;;;;5030540;28;20049;-70
2023/12/06 11:34:05;;;;;;;32.17;17.95;;;;;;;;;;5032841;28;20047;-70
2023/12/06 11:36:31;;;;;;;32.50;17.27;;;;;;;;;;5039576;28;20103;-70
2023/12/06 11:38:57;;;;;;;31.08;17.42;;;;;;;;;;5045113;28;20044;-70
2023/12/06 11:41:23;;;;;;;30.20;18.20;;;;;;;;;;5034238;28;20041;-70
2023/12/06 11:43:49;;;;;;;30.17;16.88;;;;;;;;;;5039878;28;20041;-70
2023/12/06 11:46:16;;;;;;;29.17;17.23;;;;;;;;;;5041800;28;20041;-70
2023/12/06 11:48:45;;;;;;;32.25;17.65;;;;;;;;;;5045226;28;20033;-70
2023/12/06 11:51:18;;;;;;;30.23;17.42;;;;;;;;;;5040405;28;20385;-69
2023/12/06 11:53:44;;;;;;;35.20;17.92;;;;;;;;;;5040783;28;20034;-70
2023/12/06 11:56:10;;;;;;;32.70;17.75;;;;;;;;;;5032906;28;20038;-70
2023/12/06 11:58:36;;;;;;;32.67;17.70;;;;;;;;;;5041161;28;20038;-70
2023/12/06 12:01:02;;;;;;;28.77;17.15;;;;;;;;;;5042902;28;20064;-70
2023/12/06 12:03:31;;;;;;;28.33;17.08;;;;;;;;;;5040965;28;20049;-70
2023/12/06 12:05:58;;;;;;;27.13;16.52;;;;;;;;;;5042885;28;20068;-70
2023/12/06 12:08:24;;;;;;;30.15;17.08;;;;;;;;;;5046912;28;20092;-70
2023/12/06 12:10:50;;;;;;;28.25;16.17;;;;;;;;;;5040607;28;20116;-70
2023/12/06 12:13:20;;;;;;;30.45;17.65;;;;;;;;;;5044989;28;20075;-70
2023/12/06 12:15:57;;;;;;;26.48;14.40;;;;;;;;;;5044711;28;20034;-70
2023/12/06 12:18:24;;;;;;;29.80;16.98;;;;;;;;;;5044577;28;20072;-70
2023/12/06 12:20:50;;;;;;;25.67;15.20;;;;;;;;;;5035372;28;20041;-70
2023/12/06 12:23:16;;;;;;;28.25;16.00;;;;;;;;;;5047977;28;20037;-70
2023/12/06 12:25:46;;;;;;;29.50;16.55;;;;;;;;;;5046421;28;20044;-70
2023/12/06 12:28:15;;;;;;;26.77;15.50;;;;;;;;;;5040695;28;20396;-70
2023/12/06 12:30:41;;;;;;;26.30;15.25;;;;;;;;;;5035499;28;20095;-70
2023/12/06 12:33:07;;;;;;;25.25;15.63;;;;;;;;;;5037282;28;20132;-70
2023/12/06 12:35:33;;;;;;;26.83;15.10;;;;;;;;;;5042028;28;20041;-70
2023/12/06 12:37:59;;;;;;;27.25;15.50;;;;;;;;;;5046893;28;20064;-70
2023/12/06 12:40:25;;;;;;;25.17;15.75;;;;;;;;;;5045663;28;20075;-70
2023/12/06 12:42:51;;;;;;;24.73;14.57;;;;;;;;;;5038368;28;20025;-70
2023/12/06 12:45:18;;;;;;;25.13;14.50;;;;;;;;;;5042194;28;20112;-70
2023/12/06 12:47:44;;;;;;;24.45;14.82;;;;;;;;;;5040039;28;20525;-70
2023/12/06 12:50:10;;;;;;;27.58;15.02;;;;;;;;;;5044202;28;20063;-70
2023/12/06 12:52:40;;;;;;;24.90;13.55;;;;;;;;;;5040665;28;20053;-70
2023/12/06 12:55:06;;;;;;;24.45;14.00;;;;;;;;;;5047041;28;20045;-70
2023/12/06 12:57:35;;;;;;;24.33;15.23;;;;;;;;;;5040706;28;20044;-69
2023/12/06 13:00:01;;;;;;;26.40;14.82;;;;;;;;;;5032084;28;20033;-69
2023/12/06 13:02:27;;;;;;;22.38;14.05;;;;;;;;;;5037800;28;20041;-69
2023/12/06 13:04:53;;;;;;;22.13;13.93;;;;;;;;;;5044041;28;20042;-70
2023/12/06 13:07:19;;;;;;;23.80;14.07;;;;;;;;;;5037818;28;20102;-70
2023/12/06 13:09:47;;;;;;;25.52;14.32;;;;;;;;;;5038695;28;20045;-70
2023/12/06 13:12:13;;;;;;;23.70;13.48;;;;;;;;;;5040616;28;20120;-70
2023/12/06 13:14:38;;;;;;;23.10;13.80;;;;;;;;;;5037442;28;20563;-70
2023/12/06 13:17:05;;;;;;;21.35;13.52;;;;;;;;;;5041641;28;20051;-70
2023/12/06 13:19:31;;;;;;;24.10;13.77;;;;;;;;;;5046070;28;20064;-70
2023/12/06 13:21:57;;;;;;;20.92;12.88;;;;;;;;;;5113114;22;20044;-67
2023/12/06 13:24:23;;;;;;;21.83;13.60;;;;;;;;;;5062008;28;20032;-67
2023/12/06 13:26:49;;;;;;;21.70;13.05;;;;;;;;;;5066507;28;20090;-67
2023/12/06 13:29:16;;;;;;;21.80;13.07;;;;;;;;;;5067218;28;20048;-67
2023/12/06 13:31:42;;;;;;;20.00;12.57;;;;;;;;;;5057853;28;20088;-67
2023/12/06 13:34:08;;;;;;;22.13;13.23;;;;;;;;;;5064246;28;20068;-67
2023/12/06 13:36:35;;;;;;;23.08;13.57;;;;;;;;;;5065415;28;20058;-67
2023/12/06 13:39:01;;;;;;;19.20;12.93;;;;;;;;;;5060487;28;20407;-67
2023/12/06 13:41:27;;;;;;;22.83;12.82;;;;;;;;;;5066226;28;20043;-67
2023/12/06 13:43:55;;;;;;;22.35;13.52;;;;;;;;;;5064574;28;20455;-67
2023/12/06 13:46:21;;;;;;;22.08;14.18;;;;;;;;;;5060681;28;20050;-67
2023/12/06 13:48:47;;;;;;;20.77;12.63;;;;;;;;;;5065671;28;20416;-67
2023/12/06 13:51:13;;;;;;;22.85;12.50;;;;;;;;;;5060858;28;20076;-67
2023/12/06 13:53:39;;;;;;;19.48;12.77;;;;;;;;;;5064211;28;20178;-67
2023/12/06 13:56:05;;;;;;;23.17;13.85;;;;;;;;;;5062581;28;20102;-67
2023/12/06 13:58:31;;;;;;;21.88;13.10;;;;;;;;;;5063447;28;20036;-67
2023/12/06 14:00:57;;;;;;;20.67;12.68;;;;;;;;;;5067423;28;20099;-67
2023/12/06 14:03:24;;;;;;;19.92;12.43;;;;;;;;;;5065186;28;20056;-67
2023/12/06 14:05:50;;;;;;;20.65;13.35;;;;;;;;;;5066671;28;20040;-67
2023/12/06 14:08:16;;;;;;;21.05;11.73;;;;;;;;;;5060086;28;20389;-67
2023/12/06 14:10:42;;;;;;;23.40;13.00;;;;;;;;;;5063800;28;20045;-67
2023/12/06 14:13:08;;;;;;;20.48;12.45;;;;;;;;;;5066756;28;20455;-67
2023/12/06 14:15:34;;;;;;;19.50;12.68;;;;;;;;;;5064460;28;20119;-67